Time;durP1;ratioP1;P1;durP2;ratioP2;P2;SDS_P1;SDS_P2;PMS_P1;PMS_P2;Temp;Humidity;BMP_temperature;BMP_pressure;BME280_temperature;BME280_humidity;BME280_pressure;Samples;Min_cycle;Max_cycle;Signal;HPM_P1;HPM_P2
2022/05/13 00:00:24;;;;;;;60.37;4.80;;;;;;;;;;5071487;28;20474;-72
2022/05/13 00:02:53;;;;;;;61.67;4.63;;;;;;;;;;5071589;28;20486;-73
2022/05/13 00:05:20;;;;;;;60.87;4.40;;;;;;;;;;5071666;28;20464;-74
2022/05/13 00:07:47;;;;;;;61.27;4.27;;;;;;;;;;5070675;28;21006;-73
2022/05/13 00:10:14;;;;;;;61.20;5.23;;;;;;;;;;5071718;28;20462;-74
2022/05/13 00:12:42;;;;;;;60.70;4.67;;;;;;;;;;5071663;28;20536;-73
2022/05/13 00:15:11;;;;;;;61.47;4.57;;;;;;;;;;5071603;28;20449;-72
2022/05/13 00:17:38;;;;;;;60.97;5.57;;;;;;;;;;5070754;28;20465;-74
2022/05/13 00:20:08;;;;;;;60.57;4.10;;;;;;;;;;5071329;28;20467;-73
2022/05/13 00:22:35;;;;;;;60.40;4.27;;;;;;;;;;5071188;28;20490;-73
2022/05/13 00:25:02;;;;;;;60.10;3.90;;;;;;;;;;5071653;28;20442;-73
2022/05/13 00:27:29;;;;;;;60.20;4.27;;;;;;;;;;5070731;28;20868;-73
2022/05/13 00:29:57;;;;;;;62.63;4.97;;;;;;;;;;5071352;28;20467;-74
2022/05/13 00:32:24;;;;;;;61.20;4.70;;;;;;;;;;5071325;28;20801;-73
2022/05/13 00:34:51;;;;;;;63.33;5.47;;;;;;;;;;5071285;28;21030;-73
2022/05/13 00:37:20;;;;;;;60.80;4.70;;;;;;;;;;5070363;28;20509;-73
2022/05/13 00:39:47;;;;;;;61.00;4.90;;;;;;;;;;5071187;28;20487;-73
2022/05/13 00:42:17;;;;;;;61.03;4.80;;;;;;;;;;5070989;28;20482;-73
2022/05/13 00:44:45;;;;;;;61.87;5.03;;;;;;;;;;5071395;28;20455;-72
2022/05/13 00:47:13;;;;;;;61.00;4.60;;;;;;;;;;5070509;28;20452;-72
2022/05/13 00:49:40;;;;;;;59.90;4.00;;;;;;;;;;5070831;28;20486;-73
2022/05/13 00:52:09;;;;;;;60.77;4.90;;;;;;;;;;5071447;28;20481;-73
2022/05/13 00:54:41;;;;;;;60.90;4.40;;;;;;;;;;5071046;28;20541;-73
2022/05/13 00:57:08;;;;;;;59.60;3.90;;;;;;;;;;5070667;28;20451;-73
2022/05/13 00:59:37;;;;;;;61.77;6.03;;;;;;;;;;5071112;28;20447;-73
2022/05/13 01:02:05;;;;;;;61.67;5.63;;;;;;;;;;5072051;28;20485;-73
2022/05/13 01:04:32;;;;;;;60.20;3.97;;;;;;;;;;5074665;28;20450;-73
2022/05/13 01:07:01;;;;;;;62.53;5.50;;;;;;;;;;5074757;28;20493;-73
2022/05/13 01:09:29;;;;;;;63.27;5.70;;;;;;;;;;5073773;28;20942;-74
2022/05/13 01:12:00;;;;;;;60.40;4.03;;;;;;;;;;5074700;28;20539;-73
2022/05/13 01:14:29;;;;;;;63.87;4.93;;;;;;;;;;5074394;28;20446;-74
2022/05/13 01:19:41;;;;;;;60.50;4.50;;;;;;;;;;5074439;28;20430;-73
2022/05/13 01:22:16;;;;;;;60.97;4.60;;;;;;;;;;5074428;28;20489;-73
2022/05/13 01:24:43;;;;;;;60.10;4.33;;;;;;;;;;5074733;28;20857;-74
2022/05/13 01:27:10;;;;;;;60.27;4.23;;;;;;;;;;5074037;28;20582;-74
2022/05/13 01:29:38;;;;;;;61.27;4.40;;;;;;;;;;5074242;28;20459;-74
2022/05/13 01:32:05;;;;;;;61.17;4.50;;;;;;;;;;5074595;28;20459;-74
2022/05/13 01:34:32;;;;;;;61.00;4.90;;;;;;;;;;5074116;28;20454;-74
2022/05/13 01:36:59;;;;;;;59.83;3.60;;;;;;;;;;5074087;28;20529;-74
2022/05/13 01:39:28;;;;;;;60.60;4.93;;;;;;;;;;5073224;28;20562;-74
2022/05/13 01:41:55;;;;;;;60.57;4.90;;;;;;;;;;5074308;28;20570;-73
2022/05/13 01:44:22;;;;;;;61.00;4.60;;;;;;;;;;5074060;28;20772;-73
2022/05/13 01:46:49;;;;;;;62.27;5.80;;;;;;;;;;5074169;28;20526;-73
2022/05/13 01:49:17;;;;;;;61.27;4.70;;;;;;;;;;5070270;28;20457;-74
2022/05/13 01:51:44;;;;;;;61.23;4.57;;;;;;;;;;5074143;28;20553;-74
2022/05/13 01:54:11;;;;;;;60.77;4.50;;;;;;;;;;5074066;28;20456;-74
2022/05/13 01:56:39;;;;;;;60.50;4.33;;;;;;;;;;5073701;28;20457;-73
2022/05/13 01:59:06;;;;;;;60.77;4.10;;;;;;;;;;5073310;28;20827;-73
2022/05/13 02:01:33;;;;;;;60.00;4.60;;;;;;;;;;5073662;28;20474;-74
2022/05/13 02:04:01;;;;;;;61.30;5.23;;;;;;;;;;5073607;28;20534;-73
2022/05/13 02:06:28;;;;;;;61.33;4.33;;;;;;;;;;5073883;28;20497;-74
2022/05/13 02:08:56;;;;;;;60.40;4.10;;;;;;;;;;5073026;28;20450;-75
2022/05/13 02:11:24;;;;;;;60.70;4.00;;;;;;;;;;5073492;28;20478;-74
2022/05/13 02:13:53;;;;;;;61.20;4.37;;;;;;;;;;5072646;28;20999;-74
2022/05/13 02:16:20;;;;;;;60.23;4.00;;;;;;;;;;5073372;28;20533;-74
2022/05/13 02:18:48;;;;;;;60.43;4.07;;;;;;;;;;5072730;28;20500;-74
2022/05/13 02:21:16;;;;;;;60.70;4.40;;;;;;;;;;5073240;28;20470;-74
2022/05/13 02:23:43;;;;;;;59.23;3.80;;;;;;;;;;5073258;28;20489;-73
2022/05/13 02:26:11;;;;;;;59.90;3.90;;;;;;;;;;5073416;28;20803;-74
2022/05/13 02:28:39;;;;;;;60.07;3.80;;;;;;;;;;5072807;28;21007;-74
2022/05/13 02:31:07;;;;;;;59.67;4.07;;;;;;;;;;5072941;28;20474;-76
2022/05/13 02:33:35;;;;;;;59.90;3.97;;;;;;;;;;5073437;28;20461;-76
2022/05/13 02:36:02;;;;;;;60.90;3.93;;;;;;;;;;5073180;28;20537;-75
2022/05/13 02:38:30;;;;;;;60.57;3.83;;;;;;;;;;5072483;28;20465;-76
2022/05/13 02:41:12;;;;;;;59.90;3.63;;;;;;;;;;5073025;28;20474;-76
2022/05/13 02:43:40;;;;;;;60.10;3.60;;;;;;;;;;5072725;28;20477;-75
2022/05/13 02:46:08;;;;;;;59.90;4.00;;;;;;;;;;5073023;28;20454;-75
2022/05/13 02:48:36;;;;;;;59.97;3.57;;;;;;;;;;5072145;28;20451;-75
2022/05/13 02:51:03;;;;;;;59.50;3.57;;;;;;;;;;5072927;28;20956;-75
2022/05/13 02:53:30;;;;;;;59.77;4.00;;;;;;;;;;5072764;28;20811;-75
2022/05/13 02:55:57;;;;;;;59.80;3.80;;;;;;;;;;5073036;28;20460;-75
2022/05/13 02:58:25;;;;;;;59.30;3.50;;;;;;;;;;5071742;28;20544;-75
2022/05/13 03:00:52;;;;;;;61.10;4.43;;;;;;;;;;5072597;28;20508;-75
2022/05/13 03:03:21;;;;;;;62.13;4.27;;;;;;;;;;5072514;28;20482;-75
2022/05/13 03:05:48;;;;;;;59.87;3.87;;;;;;;;;;5072993;28;20453;-75
2022/05/13 03:08:15;;;;;;;59.30;3.23;;;;;;;;;;5071848;28;20885;-75
2022/05/13 03:10:42;;;;;;;60.23;3.83;;;;;;;;;;5072114;28;20560;-75
2022/05/13 03:13:10;;;;;;;59.57;3.57;;;;;;;;;;5072114;28;20528;-75
2022/05/13 03:15:37;;;;;;;59.63;3.63;;;;;;;;;;5072369;28;20465;-75
2022/05/13 03:18:04;;;;;;;60.20;3.70;;;;;;;;;;5071410;28;20455;-75
2022/05/13 03:20:33;;;;;;;59.87;4.07;;;;;;;;;;5072202;28;20474;-75
2022/05/13 03:23:00;;;;;;;59.77;3.90;;;;;;;;;;5071915;28;20486;-75
2022/05/13 03:25:27;;;;;;;59.80;4.33;;;;;;;;;;5072173;28;20494;-76
2022/05/13 03:27:54;;;;;;;59.60;3.60;;;;;;;;;;5071527;28;20536;-75
2022/05/13 03:30:24;;;;;;;60.37;3.77;;;;;;;;;;5071744;28;20502;-75
2022/05/13 03:32:52;;;;;;;60.40;4.20;;;;;;;;;;5080880;28;20461;-75
2022/05/13 03:35:19;;;;;;;62.00;4.40;;;;;;;;;;5072066;28;20935;-75
2022/05/13 03:37:48;;;;;;;60.53;4.93;;;;;;;;;;5070829;28;20456;-75
2022/05/13 03:40:17;;;;;;;60.40;3.83;;;;;;;;;;5072140;28;20506;-75
2022/05/13 03:42:44;;;;;;;59.90;3.70;;;;;;;;;;5072021;28;20475;-75
2022/05/13 03:45:12;;;;;;;60.83;4.60;;;;;;;;;;5071937;28;20553;-75
2022/05/13 03:47:39;;;;;;;59.93;4.40;;;;;;;;;;5071275;28;20489;-76
2022/05/13 03:50:07;;;;;;;59.37;3.57;;;;;;;;;;5071445;28;20552;-76
2022/05/13 03:52:35;;;;;;;60.07;4.00;;;;;;;;;;5071645;28;21029;-76
2022/05/13 03:55:04;;;;;;;59.90;3.80;;;;;;;;;;5072008;28;20450;-76
2022/05/13 03:57:31;;;;;;;60.00;3.90;;;;;;;;;;5070825;28;20458;-75
2022/05/13 04:00:00;;;;;;;60.47;3.83;;;;;;;;;;5071651;28;20553;-76
2022/05/13 04:02:28;;;;;;;59.97;3.53;;;;;;;;;;5071540;28;20863;-75
2022/05/13 04:10:26;;;;;;;59.13;3.47;;;;;;;;;;5071903;28;20458;-75
2022/05/13 04:18:31;;;;;;;60.17;3.90;;;;;;;;;;5070870;28;20426;-77
2022/05/13 04:20:58;;;;;;;60.23;4.03;;;;;;;;;;5071509;28;20505;-75
2022/05/13 04:23:25;;;;;;;60.23;3.63;;;;;;;;;;5071186;28;20495;-76
2022/05/13 04:25:54;;;;;;;59.77;3.87;;;;;;;;;;5071509;28;20485;-75
2022/05/13 04:28:21;;;;;;;59.80;4.10;;;;;;;;;;5070738;28;20461;-76
2022/05/13 04:30:48;;;;;;;60.07;4.00;;;;;;;;;;5071335;28;20509;-76
2022/05/13 04:33:16;;;;;;;59.50;3.50;;;;;;;;;;5071342;28;20451;-76
2022/05/13 04:35:43;;;;;;;60.80;4.00;;;;;;;;;;5071489;28;20449;-75
2022/05/13 04:38:10;;;;;;;62.20;3.83;;;;;;;;;;5072941;28;20465;-76
2022/05/13 04:40:38;;;;;;;60.20;3.70;;;;;;;;;;5075488;28;20478;-76
2022/05/13 04:43:06;;;;;;;60.20;3.90;;;;;;;;;;5075265;28;20516;-76
2022/05/13 04:45:33;;;;;;;61.00;4.10;;;;;;;;;;5075318;28;20454;-75
2022/05/13 04:48:17;;;;;;;60.30;4.00;;;;;;;;;;5074497;28;20445;-75
2022/05/13 04:50:46;;;;;;;60.43;4.33;;;;;;;;;;5074823;28;20478;-76
2022/05/13 04:53:13;;;;;;;64.17;4.10;;;;;;;;;;5075324;28;20450;-75
2022/05/13 04:55:40;;;;;;;61.40;4.83;;;;;;;;;;5075258;28;20450;-76
2022/05/13 04:58:09;;;;;;;60.47;4.10;;;;;;;;;;5074448;28;20442;-76
2022/05/13 05:00:37;;;;;;;61.33;3.90;;;;;;;;;;5074869;28;20474;-76
2022/05/13 05:03:04;;;;;;;60.17;4.17;;;;;;;;;;5074652;28;20879;-76
2022/05/13 05:05:31;;;;;;;60.80;3.80;;;;;;;;;;5075007;28;20819;-76
2022/05/13 05:07:58;;;;;;;60.60;4.17;;;;;;;;;;5083014;28;20545;-76
2022/05/13 05:10:26;;;;;;;60.07;3.93;;;;;;;;;;5074340;28;21088;-75
2022/05/13 05:12:56;;;;;;;60.43;4.73;;;;;;;;;;5074738;28;20443;-76
2022/05/13 05:15:26;;;;;;;60.63;3.70;;;;;;;;;;5074586;28;20456;-75
2022/05/13 05:17:53;;;;;;;59.60;3.50;;;;;;;;;;5073979;28;20481;-76
2022/05/13 05:20:21;;;;;;;59.50;3.50;;;;;;;;;;5074401;28;20476;-76
2022/05/13 05:22:48;;;;;;;61.10;4.70;;;;;;;;;;5074493;28;20504;-75
2022/05/13 05:25:16;;;;;;;61.00;4.60;;;;;;;;;;5074486;28;20450;-76
2022/05/13 05:27:43;;;;;;;60.03;4.13;;;;;;;;;;5073751;28;20540;-76
2022/05/13 05:30:11;;;;;;;60.67;4.30;;;;;;;;;;5074051;28;20474;-76
2022/05/13 05:32:40;;;;;;;59.50;3.30;;;;;;;;;;5074486;28;20465;-75
2022/05/13 05:35:08;;;;;;;59.50;3.33;;;;;;;;;;5074500;28;20450;-76
2022/05/13 05:37:35;;;;;;;59.70;3.60;;;;;;;;;;5073588;28;20461;-76
2022/05/13 05:40:02;;;;;;;60.00;4.97;;;;;;;;;;5074069;28;20485;-75
2022/05/13 05:42:29;;;;;;;59.47;4.20;;;;;;;;;;5073985;28;20455;-76
2022/05/13 05:44:57;;;;;;;59.70;4.27;;;;;;;;;;5073856;28;20550;-75
2022/05/13 05:47:24;;;;;;;59.40;3.60;;;;;;;;;;5073515;28;20930;-75
2022/05/13 05:49:53;;;;;;;59.87;3.50;;;;;;;;;;5072802;28;20471;-76
2022/05/13 05:52:20;;;;;;;61.00;4.70;;;;;;;;;;5073836;28;20460;-75
2022/05/13 05:57:32;;;;;;;59.90;3.93;;;;;;;;;;5073498;28;20901;-75
2022/05/13 06:00:00;;;;;;;60.27;4.03;;;;;;;;;;5073989;28;20500;-76
2022/05/13 06:02:28;;;;;;;60.50;4.00;;;;;;;;;;5073622;28;20459;-76
2022/05/13 06:04:56;;;;;;;59.97;4.10;;;;;;;;;;5073870;28;20817;-75
2022/05/13 06:07:24;;;;;;;61.00;4.53;;;;;;;;;;5073037;28;20868;-76
2022/05/13 06:09:51;;;;;;;61.00;4.50;;;;;;;;;;5072967;28;20568;-74
2022/05/13 06:12:18;;;;;;;61.20;4.40;;;;;;;;;;5073773;28;20462;-75
2022/05/13 06:14:45;;;;;;;59.50;3.73;;;;;;;;;;5073347;28;20933;-74
2022/05/13 06:17:13;;;;;;;59.97;4.30;;;;;;;;;;5072909;28;20468;-74
2022/05/13 06:19:40;;;;;;;61.03;4.20;;;;;;;;;;5073307;28;20447;-75
2022/05/13 06:22:08;;;;;;;60.53;4.47;;;;;;;;;;5073455;28;20534;-74
2022/05/13 06:24:35;;;;;;;61.43;4.40;;;;;;;;;;5073159;28;20490;-74
2022/05/13 06:27:03;;;;;;;59.33;3.97;;;;;;;;;;5073517;28;20458;-74
2022/05/13 06:29:30;;;;;;;60.20;3.70;;;;;;;;;;5073008;28;20450;-73
2022/05/13 06:31:59;;;;;;;60.63;4.47;;;;;;;;;;5073095;28;20983;-74
2022/05/13 06:34:26;;;;;;;62.10;5.30;;;;;;;;;;5073118;28;20504;-74
2022/05/13 06:36:53;;;;;;;60.67;5.00;;;;;;;;;;5073003;28;20454;-74
2022/05/13 06:39:22;;;;;;;66.00;4.63;;;;;;;;;;5072185;28;20456;-74
2022/05/13 06:41:49;;;;;;;61.53;4.27;;;;;;;;;;5072963;28;20449;-74
2022/05/13 06:44:18;;;;;;;60.00;3.90;;;;;;;;;;5072911;28;20483;-73
2022/05/13 06:46:47;;;;;;;61.03;4.50;;;;;;;;;;5072982;28;20451;-73
2022/05/13 06:49:14;;;;;;;60.07;4.00;;;;;;;;;;5072252;28;20449;-74
2022/05/13 06:51:42;;;;;;;59.70;4.13;;;;;;;;;;5072634;28;20480;-73
2022/05/13 06:54:09;;;;;;;59.80;3.50;;;;;;;;;;5072667;28;20454;-74
2022/05/13 06:56:39;;;;;;;60.07;4.10;;;;;;;;;;5072677;28;20451;-73
2022/05/13 06:59:06;;;;;;;59.30;3.40;;;;;;;;;;5071936;28;20835;-73
2022/05/13 07:01:34;;;;;;;60.23;4.30;;;;;;;;;;5072368;28;20472;-72
2022/05/13 07:04:01;;;;;;;60.20;3.90;;;;;;;;;;5072217;28;20476;-73
2022/05/13 07:06:28;;;;;;;61.07;4.57;;;;;;;;;;5072476;28;20955;-72
2022/05/13 07:08:56;;;;;;;59.30;3.77;;;;;;;;;;5071806;28;20531;-73
2022/05/13 07:11:23;;;;;;;60.07;3.60;;;;;;;;;;5072271;28;20467;-74
2022/05/13 07:13:52;;;;;;;59.70;4.00;;;;;;;;;;5072358;28;20453;-73
2022/05/13 07:16:19;;;;;;;59.10;3.60;;;;;;;;;;5072330;28;20475;-73
2022/05/13 07:18:47;;;;;;;58.97;3.33;;;;;;;;;;5071356;28;20883;-73
2022/05/13 07:21:15;;;;;;;59.50;3.53;;;;;;;;;;5072086;28;20483;-74
2022/05/13 07:23:42;;;;;;;60.53;4.23;;;;;;;;;;5072197;28;20895;-74
2022/05/13 07:26:09;;;;;;;60.60;3.80;;;;;;;;;;5072218;28;20453;-73
2022/05/13 07:28:38;;;;;;;61.40;3.70;;;;;;;;;;5071338;28;20439;-73
2022/05/13 07:31:07;;;;;;;59.87;3.50;;;;;;;;;;5071650;28;20518;-73
2022/05/13 07:33:34;;;;;;;59.50;3.60;;;;;;;;;;5072143;28;20447;-73
2022/05/13 07:36:01;;;;;;;60.47;3.33;;;;;;;;;;5072014;28;20451;-73
2022/05/13 07:38:30;;;;;;;60.50;3.80;;;;;;;;;;5071223;28;20481;-73
2022/05/13 07:43:42;;;;;;;59.37;3.20;;;;;;;;;;5071771;28;20562;-74
2022/05/13 07:46:11;;;;;;;60.57;3.70;;;;;;;;;;5072097;28;20450;-73
2022/05/13 07:48:39;;;;;;;59.20;3.17;;;;;;;;;;5071328;28;20543;-73
2022/05/13 07:51:06;;;;;;;60.70;3.53;;;;;;;;;;5071592;28;20464;-73
2022/05/13 07:53:34;;;;;;;59.00;2.90;;;;;;;;;;5071608;28;20536;-73
2022/05/13 07:56:01;;;;;;;59.60;3.20;;;;;;;;;;5071530;28;20460;-73
2022/05/13 07:58:29;;;;;;;58.77;3.73;;;;;;;;;;5070817;28;20457;-73
2022/05/13 08:00:56;;;;;;;59.67;3.50;;;;;;;;;;5071668;28;20480;-73
2022/05/13 08:03:26;;;;;;;58.67;3.03;;;;;;;;;;5071764;28;20455;-73
2022/05/13 08:05:57;;;;;;;58.67;2.60;;;;;;;;;;5071664;28;20830;-73
2022/05/13 08:08:26;;;;;;;59.60;3.60;;;;;;;;;;5071306;28;20986;-73
2022/05/13 08:10:55;;;;;;;59.33;3.17;;;;;;;;;;5071230;28;21005;-73
2022/05/13 08:13:23;;;;;;;58.90;2.80;;;;;;;;;;5070974;28;20451;-73
2022/05/13 08:15:50;;;;;;;58.90;3.00;;;;;;;;;;5071753;28;20444;-73
2022/05/13 08:18:19;;;;;;;59.37;3.50;;;;;;;;;;5070754;28;20449;-73
2022/05/13 08:20:48;;;;;;;59.80;3.73;;;;;;;;;;5071402;28;20473;-73
2022/05/13 08:23:15;;;;;;;59.17;2.93;;;;;;;;;;5071173;28;20537;-73
2022/05/13 08:25:44;;;;;;;59.80;3.10;;;;;;;;;;5071404;28;20449;-73
2022/05/13 08:28:12;;;;;;;59.40;3.00;;;;;;;;;;5070496;28;20849;-73
2022/05/13 08:30:39;;;;;;;58.83;2.73;;;;;;;;;;5071062;28;20486;-73
2022/05/13 08:33:09;;;;;;;58.77;2.87;;;;;;;;;;5070991;28;20958;-73
2022/05/13 08:35:37;;;;;;;68.67;3.50;;;;;;;;;;5071168;28;20454;-73
2022/05/13 08:38:06;;;;;;;62.03;2.90;;;;;;;;;;5070703;28;20466;-73
2022/05/13 08:40:49;;;;;;;59.30;2.90;;;;;;;;;;5071382;28;20476;-72
2022/05/13 08:43:18;;;;;;;60.03;3.40;;;;;;;;;;5071156;28;20457;-72
2022/05/13 08:45:50;;;;;;;59.40;3.30;;;;;;;;;;5071288;28;20443;-72
2022/05/13 08:48:20;;;;;;;60.13;2.90;;;;;;;;;;5070828;28;20450;-73
2022/05/13 08:50:52;;;;;;;58.90;2.97;;;;;;;;;;5071135;28;20467;-72
2022/05/13 08:53:25;;;;;;;59.57;3.37;;;;;;;;;;5071106;28;20449;-73
2022/05/13 08:55:58;;;;;;;58.60;2.63;;;;;;;;;;5071183;28;20477;-73
2022/05/13 08:58:27;;;;;;;65.57;3.27;;;;;;;;;;5070259;28;20454;-73
2022/05/13 09:00:56;;;;;;;59.07;2.90;;;;;;;;;;5070679;28;20477;-73
2022/05/13 09:03:35;;;;;;;58.53;2.73;;;;;;;;;;5071083;28;20440;-73
2022/05/13 09:06:05;;;;;;;59.67;3.17;;;;;;;;;;5070998;28;20528;-73
2022/05/13 09:08:34;;;;;;;59.83;3.30;;;;;;;;;;5070348;28;20482;-74
2022/05/13 09:11:07;;;;;;;58.87;3.13;;;;;;;;;;5070686;28;20506;-74
2022/05/13 09:13:36;;;;;;;58.97;3.37;;;;;;;;;;5071113;28;20497;-75
2022/05/13 09:16:05;;;;;;;58.90;3.20;;;;;;;;;;5071138;28;20482;-74
2022/05/13 09:18:34;;;;;;;60.50;3.03;;;;;;;;;;5070083;28;20445;-74
2022/05/13 09:21:03;;;;;;;58.97;2.60;;;;;;;;;;5070679;28;20557;-74
2022/05/13 09:23:31;;;;;;;62.43;3.43;;;;;;;;;;5072042;28;20446;-75
2022/05/13 09:26:03;;;;;;;62.10;3.37;;;;;;;;;;5074599;28;20438;-74
2022/05/13 09:28:31;;;;;;;58.90;3.00;;;;;;;;;;5073672;28;20937;-74
2022/05/13 09:31:05;;;;;;;61.20;3.17;;;;;;;;;;5074391;28;20467;-74
2022/05/13 09:33:33;;;;;;;58.57;2.37;;;;;;;;;;5074174;28;20947;-74
2022/05/13 09:36:02;;;;;;;58.97;3.13;;;;;;;;;;5074252;28;20455;-75
2022/05/13 09:38:31;;;;;;;59.07;3.37;;;;;;;;;;5073438;28;20542;-75
2022/05/13 09:41:00;;;;;;;59.37;2.90;;;;;;;;;;5073991;28;20467;-75
2022/05/13 09:43:36;;;;;;;59.23;2.73;;;;;;;;;;5074160;28;20443;-75
2022/05/13 09:46:07;;;;;;;58.63;2.47;;;;;;;;;;5074110;28;20936;-75
2022/05/13 09:48:36;;;;;;;58.23;2.70;;;;;;;;;;5073389;28;20451;-75
2022/05/13 09:51:20;;;;;;;58.90;2.60;;;;;;;;;;5074250;28;20472;-75
2022/05/13 09:54:00;;;;;;;58.37;2.73;;;;;;;;;;5073878;28;20594;-75
2022/05/13 09:56:35;;;;;;;58.53;2.70;;;;;;;;;;5073968;28;20451;-75
2022/05/13 09:59:07;;;;;;;59.53;2.70;;;;;;;;;;5072983;28;20471;-75
2022/05/13 10:01:34;;;;;;;59.87;2.67;;;;;;;;;;5073548;28;21062;-75
2022/05/13 10:04:10;;;;;;;59.20;3.10;;;;;;;;;;5073605;28;20442;-75
2022/05/13 10:06:38;;;;;;;58.57;2.73;;;;;;;;;;5073735;28;20443;-75
2022/05/13 10:14:40;;;;;;;59.33;3.10;;;;;;;;;;5073690;28;20423;-75
2022/05/13 10:17:11;;;;;;;59.17;2.97;;;;;;;;;;5073164;28;20457;-75
2022/05/13 10:19:42;;;;;;;59.60;3.20;;;;;;;;;;5073523;28;20884;-75
2022/05/13 10:22:13;;;;;;;61.67;2.90;;;;;;;;;;5073282;28;20468;-74
2022/05/13 10:24:43;;;;;;;58.60;3.10;;;;;;;;;;5073441;28;20484;-74
2022/05/13 10:27:13;;;;;;;58.60;2.50;;;;;;;;;;5072544;28;20449;-74
2022/05/13 10:29:45;;;;;;;59.03;2.93;;;;;;;;;;5073176;28;20535;-74
2022/05/13 10:32:15;;;;;;;59.27;2.77;;;;;;;;;;5073113;28;20519;-74
2022/05/13 10:34:47;;;;;;;58.33;3.00;;;;;;;;;;5072902;28;20530;-74
2022/05/13 10:37:18;;;;;;;58.77;3.37;;;;;;;;;;5072743;28;20819;-74
2022/05/13 10:39:47;;;;;;;58.97;3.47;;;;;;;;;;5073051;28;20488;-74
2022/05/13 10:42:18;;;;;;;60.80;3.60;;;;;;;;;;5072965;28;20453;-75
2022/05/13 10:44:49;;;;;;;58.70;3.00;;;;;;;;;;5072824;28;21082;-75
2022/05/13 10:47:18;;;;;;;60.27;3.30;;;;;;;;;;5072532;28;20447;-75
2022/05/13 10:49:46;;;;;;;58.97;3.33;;;;;;;;;;5073111;28;20472;-74
2022/05/13 10:52:19;;;;;;;58.97;3.40;;;;;;;;;;5072850;28;20449;-75
2022/05/13 10:54:50;;;;;;;59.10;3.00;;;;;;;;;;5072756;28;20443;-75
2022/05/13 10:57:23;;;;;;;58.93;3.00;;;;;;;;;;5071922;28;20904;-75
2022/05/13 10:59:59;;;;;;;58.97;3.00;;;;;;;;;;5072542;28;20473;-74
2022/05/13 11:02:40;;;;;;;59.87;3.20;;;;;;;;;;5072465;28;20973;-75
2022/05/13 11:05:10;;;;;;;59.37;3.27;;;;;;;;;;5072431;28;21028;-75
2022/05/13 11:07:39;;;;;;;58.27;3.13;;;;;;;;;;5071792;28;20452;-74
2022/05/13 11:10:15;;;;;;;59.13;3.53;;;;;;;;;;5072038;28;20475;-75
2022/05/13 11:12:45;;;;;;;58.43;2.50;;;;;;;;;;5072423;28;20526;-75
2022/05/13 11:15:18;;;;;;;60.93;3.47;;;;;;;;;;5072296;28;20870;-75
2022/05/13 11:17:52;;;;;;;59.20;3.23;;;;;;;;;;5071603;28;20932;-74
2022/05/13 11:20:23;;;;;;;60.90;3.70;;;;;;;;;;5071995;28;20551;-74
2022/05/13 11:22:54;;;;;;;59.97;3.07;;;;;;;;;;5072434;28;20836;-75
2022/05/13 11:28:27;;;;;;;59.10;3.00;;;;;;;;;;5071570;28;20907;-75
2022/05/13 11:31:01;;;;;;;59.07;3.07;;;;;;;;;;5059395;28;20904;-74
2022/05/13 11:33:32;;;;;;;61.10;3.20;;;;;;;;;;5071867;28;20889;-74
2022/05/13 11:36:07;;;;;;;60.50;3.53;;;;;;;;;;5072171;28;20448;-75
2022/05/13 11:38:43;;;;;;;58.73;2.80;;;;;;;;;;5071101;28;20450;-74
2022/05/13 11:41:13;;;;;;;59.53;3.37;;;;;;;;;;5071548;28;20467;-74
2022/05/13 11:43:45;;;;;;;59.30;3.83;;;;;;;;;;5072005;28;20474;-75
2022/05/13 11:46:30;;;;;;;60.07;3.43;;;;;;;;;;5071408;28;21033;-75
2022/05/13 11:49:00;;;;;;;61.23;3.57;;;;;;;;;;5071099;28;20447;-76
2022/05/13 11:51:28;;;;;;;58.83;3.10;;;;;;;;;;5071666;28;20468;-74
2022/05/13 11:54:12;;;;;;;59.20;2.77;;;;;;;;;;5071760;28;20519;-74
2022/05/13 11:56:41;;;;;;;59.40;3.10;;;;;;;;;;5071993;28;20450;-74
2022/05/13 11:59:11;;;;;;;59.50;2.90;;;;;;;;;;5071000;28;20459;-75
2022/05/13 12:01:57;;;;;;;59.10;3.00;;;;;;;;;;5071989;28;20476;-75
2022/05/13 12:04:29;;;;;;;58.67;2.83;;;;;;;;;;5071480;28;20956;-75
2022/05/13 12:06:58;;;;;;;58.80;2.43;;;;;;;;;;5071695;28;20443;-73
2022/05/13 12:09:28;;;;;;;58.60;3.00;;;;;;;;;;5071031;28;20525;-74
2022/05/13 12:11:58;;;;;;;59.10;3.00;;;;;;;;;;5071571;28;20485;-74
2022/05/13 12:14:29;;;;;;;59.50;2.80;;;;;;;;;;5071259;28;20455;-73
2022/05/13 12:17:03;;;;;;;58.40;2.73;;;;;;;;;;5071783;28;20898;-72
2022/05/13 12:19:42;;;;;;;58.47;2.50;;;;;;;;;;5070914;28;20878;-73
2022/05/13 12:22:14;;;;;;;58.20;2.93;;;;;;;;;;5071456;28;20545;-73
2022/05/13 12:25:00;;;;;;;58.60;3.07;;;;;;;;;;5071125;28;20455;-71
2022/05/13 12:27:34;;;;;;;58.20;2.70;;;;;;;;;;5070827;28;20447;-72
2022/05/13 12:30:02;;;;;;;57.90;2.33;;;;;;;;;;5071603;28;20467;-73
2022/05/13 12:32:40;;;;;;;58.60;2.70;;;;;;;;;;5071521;28;20447;-74
2022/05/13 12:38:06;;;;;;;57.83;2.40;;;;;;;;;;5070624;28;20485;-73
2022/05/13 12:40:35;;;;;;;58.87;2.80;;;;;;;;;;5071202;28;20481;-74
2022/05/13 12:43:07;;;;;;;58.17;2.40;;;;;;;;;;5071241;28;20479;-75
2022/05/13 12:45:45;;;;;;;57.70;2.40;;;;;;;;;;5071165;28;20562;-74
2022/05/13 12:48:15;;;;;;;58.20;2.73;;;;;;;;;;5070599;28;20538;-74
2022/05/13 12:50:44;;;;;;;57.47;2.17;;;;;;;;;;5071268;28;20464;-74
2022/05/13 12:53:29;;;;;;;58.10;2.60;;;;;;;;;;5070993;28;20447;-75
2022/05/13 12:55:56;;;;;;;58.10;2.50;;;;;;;;;;5061084;28;20549;-74
2022/05/13 12:58:25;;;;;;;57.77;2.33;;;;;;;;;;5072088;28;20447;-75
2022/05/13 13:00:53;;;;;;;57.60;2.03;;;;;;;;;;5075133;28;20546;-74
2022/05/13 13:03:23;;;;;;;58.03;2.57;;;;;;;;;;5074915;28;20475;-74
2022/05/13 13:05:57;;;;;;;59.37;2.73;;;;;;;;;;5074650;28;21122;-73
2022/05/13 13:08:26;;;;;;;58.17;2.67;;;;;;;;;;5074117;28;20943;-75
2022/05/13 13:10:57;;;;;;;58.17;2.40;;;;;;;;;;5075028;28;20479;-77
2022/05/13 13:13:27;;;;;;;58.30;2.30;;;;;;;;;;5074769;28;20512;-75
2022/05/13 13:15:57;;;;;;;58.20;2.67;;;;;;;;;;5074670;28;20447;-75
2022/05/13 13:18:31;;;;;;;58.60;2.37;;;;;;;;;;5073808;28;20995;-75
2022/05/13 13:20:59;;;;;;;58.20;2.50;;;;;;;;;;5074459;28;20983;-75
2022/05/13 13:23:27;;;;;;;60.00;2.30;;;;;;;;;;5074646;28;20447;-75
2022/05/13 13:25:57;;;;;;;57.73;2.00;;;;;;;;;;5074368;28;21033;-75
2022/05/13 13:28:25;;;;;;;58.40;2.40;;;;;;;;;;5073871;28;20496;-75
2022/05/13 13:30:54;;;;;;;57.73;2.23;;;;;;;;;;5074430;28;20471;-75
2022/05/13 13:33:22;;;;;;;58.07;2.53;;;;;;;;;;5074145;28;20452;-77
2022/05/13 13:35:50;;;;;;;57.57;2.20;;;;;;;;;;5074194;28;20450;-75
2022/05/13 13:38:18;;;;;;;57.77;2.40;;;;;;;;;;5073405;28;20459;-75
2022/05/13 13:40:46;;;;;;;58.07;2.67;;;;;;;;;;5074098;28;21025;-76
2022/05/13 13:43:15;;;;;;;58.27;2.30;;;;;;;;;;5074062;28;20534;-76
2022/05/13 13:45:44;;;;;;;59.10;3.10;;;;;;;;;;5074102;28;20485;-75
2022/05/13 13:48:12;;;;;;;57.77;2.20;;;;;;;;;;5073275;28;20516;-76
2022/05/13 13:50:46;;;;;;;57.87;2.23;;;;;;;;;;5073901;28;20550;-75
2022/05/13 13:53:18;;;;;;;58.10;2.37;;;;;;;;;;5073967;28;20454;-76
2022/05/13 13:55:45;;;;;;;57.70;2.00;;;;;;;;;;5073852;28;20478;-75
2022/05/13 13:58:24;;;;;;;57.60;1.87;;;;;;;;;;5073250;28;20539;-76
2022/05/13 14:00:51;;;;;;;58.77;2.40;;;;;;;;;;5074092;28;20471;-75
2022/05/13 14:03:20;;;;;;;58.00;2.00;;;;;;;;;;5073798;28;20542;-75
2022/05/13 14:05:51;;;;;;;58.10;2.30;;;;;;;;;;5073777;28;20576;-75
2022/05/13 14:08:20;;;;;;;57.67;2.10;;;;;;;;;;5073127;28;20546;-75
2022/05/13 14:10:50;;;;;;;58.17;2.10;;;;;;;;;;5072559;28;20469;-75
2022/05/13 14:13:19;;;;;;;57.77;2.00;;;;;;;;;;5073325;28;20463;-76
2022/05/13 14:15:47;;;;;;;58.10;2.50;;;;;;;;;;5073752;28;20443;-75
2022/05/13 14:18:16;;;;;;;57.97;2.13;;;;;;;;;;5072856;28;20526;-74
2022/05/13 14:20:44;;;;;;;58.37;2.30;;;;;;;;;;5073403;28;20846;-75
2022/05/13 14:23:14;;;;;;;57.70;2.57;;;;;;;;;;5073690;28;20826;-74
2022/05/13 14:25:47;;;;;;;57.70;2.40;;;;;;;;;;5073068;28;20479;-75
2022/05/13 14:28:16;;;;;;;57.90;2.10;;;;;;;;;;5072866;28;20454;-74
2022/05/13 14:30:45;;;;;;;57.77;2.17;;;;;;;;;;5073143;28;20554;-74
2022/05/13 14:33:12;;;;;;;57.40;1.90;;;;;;;;;;5073070;28;20443;-75
2022/05/13 14:35:39;;;;;;;57.97;2.97;;;;;;;;;;5073150;28;20826;-74
2022/05/13 14:38:07;;;;;;;57.80;2.10;;;;;;;;;;5072173;28;20887;-75
2022/05/13 14:40:37;;;;;;;57.50;2.03;;;;;;;;;;5072795;28;21005;-74
2022/05/13 14:43:08;;;;;;;57.47;2.00;;;;;;;;;;5073170;28;20538;-75
2022/05/13 14:45:37;;;;;;;57.60;2.20;;;;;;;;;;5073052;28;20489;-74
2022/05/13 14:48:15;;;;;;;60.20;2.23;;;;;;;;;;5072145;28;20541;-75
2022/05/13 14:50:44;;;;;;;58.07;2.40;;;;;;;;;;5073147;28;20467;-74
2022/05/13 14:53:12;;;;;;;57.80;2.20;;;;;;;;;;5072887;28;20470;-75
2022/05/13 14:55:43;;;;;;;57.77;2.13;;;;;;;;;;5072854;28;20455;-74
2022/05/13 14:58:23;;;;;;;57.70;2.20;;;;;;;;;;5072167;28;20506;-75
2022/05/13 15:00:51;;;;;;;58.80;2.40;;;;;;;;;;5072499;28;20468;-74
2022/05/13 15:03:22;;;;;;;58.60;2.50;;;;;;;;;;5072337;28;20447;-74
2022/05/13 15:05:51;;;;;;;60.57;2.20;;;;;;;;;;5072635;28;20485;-74
2022/05/13 15:08:28;;;;;;;57.93;2.20;;;;;;;;;;5071967;28;20486;-74
2022/05/13 15:10:56;;;;;;;57.60;2.17;;;;;;;;;;5072513;28;20474;-74
2022/05/13 15:13:25;;;;;;;57.83;2.10;;;;;;;;;;5072349;28;20447;-74